createdAt,value
2023-02-14T00:01:11.948Z,36.07
2023-02-14T00:04:15.509Z,35.63
2023-02-14T00:07:19.472Z,38.60
2023-02-14T00:10:22.071Z,38.40
2023-02-14T00:13:24.661Z,40.03
2023-02-14T00:16:26.275Z,39.10
2023-02-14T00:19:28.945Z,40.03
2023-02-14T00:22:32.904Z,39.20
2023-02-14T00:25:35.844Z,43.83
2023-02-14T00:28:38.426Z,36.37
2023-02-14T00:31:42.217Z,38.00
2023-02-14T00:34:45.004Z,40.97
2023-02-14T00:38:10.773Z,37.50
2023-02-14T00:41:19.071Z,41.40
2023-02-14T00:44:21.874Z,36.83
2023-02-14T00:47:24.386Z,36.50
2023-02-14T00:50:26.913Z,38.37
2023-02-14T00:53:30.767Z,37.57
2023-02-14T00:57:28.750Z,40.37
2023-02-14T01:00:31.459Z,36.77
2023-02-14T01:03:34.489Z,37.63
2023-02-14T01:06:37.210Z,37.47
2023-02-14T01:09:41.280Z,38.43
2023-02-14T01:12:43.784Z,38.13
2023-02-14T01:16:42.718Z,39.53
2023-02-14T01:19:45.278Z,35.50
2023-02-14T01:23:43.365Z,37.17
2023-02-14T01:27:41.080Z,38.73
2023-02-14T01:30:45.036Z,36.23
2023-02-14T01:33:49.249Z,39.23
2023-02-14T01:36:51.925Z,37.93
2023-02-14T01:39:54.496Z,41.00
2023-02-14T01:42:57.330Z,39.70
2023-02-14T01:46:01.305Z,41.43
2023-02-14T01:49:09.432Z,35.07
2023-02-14T01:52:15.778Z,42.30
2023-02-14T01:55:22.896Z,37.60
2023-02-14T01:58:28.177Z,41.37
2023-02-14T02:01:42.595Z,36.90
2023-02-14T02:04:47.598Z,39.63
2023-02-14T02:07:51.198Z,37.30
2023-02-14T02:10:53.790Z,41.53
2023-02-14T02:13:56.808Z,39.50
2023-02-14T02:17:25.850Z,38.03
2023-02-14T02:20:52.959Z,39.10
2023-02-14T02:24:13.352Z,40.90
2023-02-14T02:27:26.429Z,38.43
2023-02-14T02:31:08.930Z,40.03
2023-02-14T02:34:35.313Z,39.40
2023-02-14T02:37:45.671Z,39.30
2023-02-14T02:40:55.868Z,39.97
2023-02-14T02:44:08.301Z,37.33
2023-02-14T02:47:19.678Z,39.23
2023-02-14T02:50:46.856Z,38.23
2023-02-14T02:53:56.584Z,35.20
2023-02-14T02:57:02.480Z,36.43
2023-02-14T03:00:08.602Z,34.80
2023-02-14T03:03:29.522Z,36.03
2023-02-14T03:06:32.495Z,37.50
2023-02-14T03:10:06.508Z,39.97
2023-02-14T03:13:32.294Z,35.13
2023-02-14T03:16:40.536Z,36.10
2023-02-14T03:20:10.179Z,34.03
2023-02-14T03:23:21.560Z,36.27
2023-02-14T03:26:35.450Z,37.57
2023-02-14T03:29:50.571Z,40.77
2023-02-14T03:33:01.255Z,38.23
2023-02-14T03:36:09.892Z,35.50
2023-02-14T03:39:20.543Z,37.90
2023-02-14T03:42:26.955Z,32.90
2023-02-14T03:45:33.722Z,36.43
2023-02-14T03:48:38.845Z,35.13
2023-02-14T03:51:42.892Z,36.93
2023-02-14T03:54:49.421Z,36.43
2023-02-14T03:57:59.669Z,36.27
2023-02-14T04:01:07.610Z,36.63
2023-02-14T04:04:13.101Z,36.47
2023-02-14T04:07:18.833Z,41.10
2023-02-14T04:10:22.462Z,40.33
2023-02-14T04:13:26.512Z,40.97
2023-02-14T04:16:29.339Z,37.63
2023-02-14T04:19:32.051Z,39.67
2023-02-14T04:22:34.643Z,37.77
2023-02-14T04:25:39.374Z,45.27
2023-02-14T04:28:43.338Z,43.53
2023-02-14T04:31:46.004Z,41.97
2023-02-14T04:34:49.165Z,44.57
2023-02-14T04:37:51.777Z,44.60
2023-02-14T04:40:54.363Z,48.47
2023-02-14T04:43:58.298Z,42.87
2023-02-14T04:47:01.268Z,44.83
2023-02-14T04:50:04.284Z,44.60
2023-02-14T04:53:06.856Z,46.33
2023-02-14T04:56:09.546Z,44.10
2023-02-14T04:59:14.612Z,42.13
2023-02-14T05:02:17.311Z,39.87
2023-02-14T05:05:19.930Z,46.27
2023-02-14T05:08:22.484Z,43.33
2023-02-14T05:11:25.316Z,42.20
2023-02-14T05:14:29.336Z,40.23
2023-02-14T05:17:31.951Z,38.60
2023-02-14T05:20:34.563Z,43.03
2023-02-14T05:23:37.421Z,43.67
2023-02-14T05:26:40.900Z,40.27
2023-02-14T05:29:44.821Z,43.13
2023-02-14T05:32:47.398Z,43.83
2023-02-14T05:35:50.003Z,38.27
2023-02-14T05:38:52.886Z,41.23
2023-02-14T05:41:57.933Z,42.20
2023-02-14T05:45:03.256Z,40.60
2023-02-14T05:48:06.603Z,41.03
2023-02-14T05:51:11.408Z,37.63
2023-02-14T05:54:14.001Z,37.77
2023-02-14T05:57:16.641Z,40.97
2023-02-14T06:00:22.331Z,34.27
2023-02-14T06:03:25.419Z,38.77
2023-02-14T06:06:27.994Z,42.40
2023-02-14T06:09:30.630Z,42.10
2023-02-14T06:12:33.213Z,45.60
2023-02-14T06:15:37.541Z,45.00
2023-02-14T06:18:40.133Z,45.73
2023-02-14T06:21:42.790Z,42.17
2023-02-14T06:24:45.367Z,43.37
2023-02-14T06:27:49.473Z,48.47
2023-02-14T06:30:53.630Z,47.67
2023-02-14T06:33:57.061Z,49.90
2023-02-14T06:36:59.648Z,43.43
2023-02-14T06:40:02.634Z,47.27
2023-02-14T06:43:05.238Z,49.10
2023-02-14T06:46:09.216Z,45.07
2023-02-14T06:49:12.038Z,44.63
2023-02-14T06:52:14.620Z,49.10
2023-02-14T06:55:17.252Z,49.87
2023-02-14T06:58:19.943Z,43.33
2023-02-14T07:01:23.927Z,44.07
2023-02-14T07:04:26.570Z,50.87
2023-02-14T07:07:29.185Z,46.87
2023-02-14T07:10:32.888Z,45.90
2023-02-14T07:13:35.472Z,47.10
2023-02-14T07:16:40.065Z,46.70
2023-02-14T07:19:42.672Z,42.20
2023-02-14T07:22:45.686Z,44.43
2023-02-14T07:25:48.258Z,43.73
2023-02-14T07:28:51.505Z,43.13
2023-02-14T07:31:55.598Z,40.73
2023-02-14T07:34:58.349Z,40.90
2023-02-14T07:38:00.929Z,43.53
2023-02-14T07:41:03.821Z,40.07
2023-02-14T07:44:06.456Z,38.97
2023-02-14T07:47:11.415Z,40.73
2023-02-14T07:50:14.008Z,42.70
2023-02-14T07:53:16.596Z,40.57
2023-02-14T07:56:19.216Z,40.70
2023-02-14T07:59:22.713Z,40.13
2023-02-14T08:02:27.709Z,41.13
2023-02-14T08:05:30.375Z,37.77
2023-02-14T08:08:33.310Z,41.67
2023-02-14T08:11:53.240Z,37.43
2023-02-14T08:15:15.843Z,39.23
2023-02-14T08:18:21.075Z,41.77
2023-02-14T08:21:23.701Z,41.70
2023-02-14T08:24:26.764Z,33.20
2023-02-14T08:27:29.384Z,36.13
2023-02-14T08:30:33.199Z,39.13
2023-02-14T08:33:37.222Z,38.10
2023-02-14T08:36:39.843Z,35.10
2023-02-14T08:39:42.466Z,32.87
2023-02-14T08:42:45.026Z,33.97
2023-02-14T08:45:48.431Z,32.20
2023-02-14T08:48:53.399Z,36.13
2023-02-14T08:51:56.089Z,31.67
2023-02-14T08:54:58.986Z,32.77
2023-02-14T08:58:01.623Z,37.60
2023-02-14T09:01:09.562Z,29.80
2023-02-14T09:04:13.742Z,28.03
2023-02-14T09:07:16.403Z,29.73
2023-02-14T09:10:19.576Z,31.13
2023-02-14T09:13:22.181Z,29.23
2023-02-14T09:16:28.752Z,29.63
2023-02-14T09:19:33.089Z,28.77
2023-02-14T09:22:35.761Z,34.23
2023-02-14T09:25:38.325Z,32.50
2023-02-14T09:28:41.279Z,32.00
2023-02-14T09:31:43.962Z,29.77
2023-02-14T09:34:47.995Z,34.30
2023-02-14T09:38:08.067Z,31.03
2023-02-14T09:41:24.628Z,31.37
2023-02-14T09:44:32.950Z,31.50
2023-02-14T09:47:41.548Z,32.23
2023-02-14T09:50:50.647Z,29.97
2023-02-14T09:53:59.932Z,29.63
2023-02-14T09:57:09.766Z,28.17
2023-02-14T10:00:21.016Z,32.27
2023-02-14T10:03:41.842Z,30.20
2023-02-14T10:06:51.541Z,28.73
2023-02-14T10:10:00.588Z,31.87
2023-02-14T10:13:08.619Z,26.90
2023-02-14T10:16:19.349Z,29.80
2023-02-14T10:19:27.001Z,26.50
2023-02-14T10:22:42.698Z,25.83
2023-02-14T10:25:52.504Z,29.23
2023-02-14T10:28:56.816Z,25.83
2023-02-14T10:32:01.205Z,26.17
2023-02-14T10:35:09.372Z,25.90
2023-02-14T10:38:29.080Z,25.53
2023-02-14T10:41:43.248Z,23.13
2023-02-14T10:44:55.640Z,23.20
2023-02-14T10:48:08.288Z,24.70
2023-02-14T10:51:17.782Z,24.00
2023-02-14T10:54:25.787Z,25.70
2023-02-14T10:57:32.864Z,22.40
2023-02-14T11:00:38.512Z,23.53
2023-02-14T11:03:44.275Z,26.70
2023-02-14T11:06:49.074Z,23.83
2023-02-14T11:09:52.988Z,22.30
2023-02-14T11:12:55.627Z,23.17
2023-02-14T11:16:01.640Z,21.67
2023-02-14T11:19:10.792Z,27.07
2023-02-14T11:22:30.208Z,27.97
2023-02-14T11:25:36.482Z,22.40
2023-02-14T11:28:50.051Z,27.55
2023-02-14T11:31:53.105Z,23.23
2023-02-14T11:35:00.598Z,24.60
2023-02-14T11:38:05.366Z,26.33
2023-02-14T11:41:12.423Z,23.13
2023-02-14T11:44:22.496Z,26.13
2023-02-14T11:47:29.262Z,23.45
2023-02-14T11:50:31.889Z,29.05
2023-02-14T11:53:44.943Z,23.15
2023-02-14T11:56:53.748Z,24.23
2023-02-14T11:59:58.060Z,23.63
2023-02-14T12:03:04.680Z,22.30
2023-02-14T12:06:07.556Z,26.47
2023-02-14T12:09:24.551Z,26.17
2023-02-14T12:12:28.754Z,25.93
2023-02-14T12:15:40.947Z,26.07
2023-02-14T12:18:57.137Z,28.10
2023-02-14T12:22:03.982Z,27.00
2023-02-14T12:25:15.304Z,26.63
2023-02-14T12:28:25.786Z,29.03
2023-02-14T12:31:28.575Z,26.70
2023-02-14T12:34:31.239Z,26.77
2023-02-14T12:37:50.825Z,26.13
2023-02-14T12:41:10.368Z,26.37
2023-02-14T12:44:25.612Z,27.00
2023-02-14T12:47:38.537Z,30.50
2023-02-14T12:50:48.520Z,29.17
2023-02-14T12:54:03.326Z,27.60
2023-02-14T12:57:13.951Z,30.60
2023-02-14T13:00:36.017Z,25.17
2023-02-14T13:04:06.937Z,26.00
2023-02-14T13:07:18.768Z,27.20
2023-02-14T13:10:34.618Z,32.77
2023-02-14T13:13:51.233Z,27.47
2023-02-14T13:17:01.698Z,22.60
2023-02-14T13:20:19.002Z,24.15
2023-02-14T13:23:26.586Z,28.10
2023-02-14T13:26:33.385Z,24.30
2023-02-14T13:29:46.423Z,28.17
2023-02-14T13:32:54.355Z,22.90
2023-02-14T13:36:01.182Z,23.58
2023-02-14T13:39:05.199Z,23.60
2023-02-14T13:42:08.432Z,25.58
2023-02-14T13:45:51.814Z,21.52
2023-02-14T13:49:01.383Z,23.83
2023-02-14T13:52:06.273Z,22.42
2023-02-14T13:55:15.439Z,23.35
2023-02-14T13:58:21.637Z,25.38
2023-02-14T14:01:33.940Z,22.30
2023-02-14T14:04:38.898Z,23.60
2023-02-14T14:07:41.496Z,22.40
2023-02-14T14:10:46.373Z,24.70
2023-02-14T14:13:59.765Z,22.98
2023-02-14T14:17:02.798Z,25.53
2023-02-14T14:20:41.689Z,23.27
2023-02-14T14:23:44.329Z,32.17
2023-02-14T14:26:48.720Z,24.40
2023-02-14T14:29:53.387Z,23.77
2023-02-14T14:32:56.400Z,22.57
2023-02-14T14:36:03.025Z,24.63
2023-02-14T14:39:05.656Z,25.23
2023-02-14T14:42:10.740Z,25.80
2023-02-14T14:45:22.972Z,25.93
2023-02-14T14:48:31.571Z,28.40
2023-02-14T14:51:36.778Z,23.37
2023-02-14T14:54:40.674Z,26.97
2023-02-14T14:57:50.495Z,26.90
2023-02-14T15:00:53.194Z,23.80
2023-02-14T15:03:56.195Z,26.17
2023-02-14T15:07:20.833Z,24.87
2023-02-14T15:10:25.669Z,30.67
2023-02-14T15:13:50.763Z,25.57
2023-02-14T15:16:57.494Z,24.17
2023-02-14T15:20:04.374Z,24.90
2023-02-14T15:23:08.841Z,25.30
2023-02-14T15:26:18.693Z,28.13
2023-02-14T15:29:24.402Z,31.03
2023-02-14T15:32:31.079Z,25.70
2023-02-14T15:35:37.320Z,26.60
2023-02-14T15:38:42.828Z,27.13
2023-02-14T15:41:46.638Z,30.07
2023-02-14T15:44:49.350Z,28.10
2023-02-14T15:47:53.920Z,27.83
2023-02-14T15:50:59.678Z,28.47
2023-02-14T15:54:07.817Z,31.73
2023-02-14T15:57:22.160Z,29.13
2023-02-14T16:00:26.687Z,28.50
2023-02-14T16:03:33.585Z,28.03
2023-02-14T16:06:39.147Z,30.60
2023-02-14T16:09:43.128Z,29.33
2023-02-14T16:12:57.209Z,27.70
2023-02-14T16:16:02.255Z,28.57
2023-02-14T16:19:04.843Z,28.43
2023-02-14T16:22:09.269Z,30.38
2023-02-14T16:25:13.339Z,31.30
2023-02-14T16:28:16.588Z,29.63
2023-02-14T16:31:19.523Z,28.30
2023-02-14T16:34:22.896Z,28.37
2023-02-14T16:37:29.278Z,32.53
2023-02-14T16:40:33.470Z,28.00
2023-02-14T16:43:36.089Z,33.00
2023-02-14T16:46:38.708Z,28.20
2023-02-14T16:49:41.951Z,28.83
2023-02-14T16:52:49.454Z,29.90
2023-02-14T16:55:55.886Z,31.43
2023-02-14T16:58:58.776Z,48.10
2023-02-14T17:02:02.212Z,33.17
2023-02-14T17:05:05.311Z,33.33
2023-02-14T17:08:11.091Z,30.77
2023-02-14T17:11:15.331Z,29.93
2023-02-14T17:14:22.997Z,29.03
2023-02-14T17:17:26.018Z,31.53
2023-02-14T17:20:30.306Z,33.70
2023-02-14T17:23:32.908Z,27.73
2023-02-14T17:26:38.049Z,31.13
2023-02-14T17:29:40.695Z,28.47
2023-02-14T17:32:43.798Z,32.47
2023-02-14T17:35:46.592Z,31.70
2023-02-14T17:38:49.525Z,29.63
2023-02-14T17:41:53.489Z,31.07
2023-02-14T17:44:56.057Z,31.60
2023-02-14T17:47:58.621Z,38.77
2023-02-14T17:51:05.165Z,31.53
2023-02-14T17:54:08.128Z,32.83
2023-02-14T17:57:12.630Z,32.27
2023-02-14T18:00:16.803Z,31.37
2023-02-14T18:03:20.251Z,31.40
2023-02-14T18:06:23.248Z,30.00
2023-02-14T18:09:25.910Z,40.80
2023-02-14T18:12:29.956Z,32.03
2023-02-14T18:15:32.524Z,36.17
2023-02-14T18:18:35.352Z,32.87
2023-02-14T18:21:40.034Z,32.80
2023-02-14T18:24:42.755Z,27.97
2023-02-14T18:27:46.714Z,44.00
2023-02-14T18:30:49.486Z,72.30
2023-02-14T18:33:52.125Z,43.90
2023-02-14T18:36:55.476Z,37.73
2023-02-14T18:39:58.091Z,33.03
2023-02-14T18:43:02.146Z,31.80
2023-02-14T18:46:05.676Z,31.67
2023-02-14T18:49:09.425Z,35.07
2023-02-14T18:52:12.018Z,34.80
2023-02-14T18:55:14.647Z,34.10
2023-02-14T18:58:19.381Z,34.00
2023-02-14T19:01:24.288Z,32.87
2023-02-14T19:04:27.015Z,36.60
2023-02-14T19:07:29.580Z,37.30
2023-02-14T19:10:32.336Z,36.47
2023-02-14T19:13:37.288Z,39.00
2023-02-14T19:16:43.705Z,33.97
2023-02-14T19:19:46.324Z,38.17
2023-02-14T19:22:49.541Z,37.90
2023-02-14T19:25:52.294Z,37.00
2023-02-14T19:28:58.727Z,42.93
2023-02-14T19:32:02.118Z,36.90
2023-02-14T19:35:04.859Z,41.73
2023-02-14T19:38:07.443Z,36.67
2023-02-14T19:41:16.549Z,40.10
2023-02-14T19:44:20.547Z,40.43
2023-02-14T19:47:36.546Z,42.70
2023-02-14T19:50:47.412Z,40.03
2023-02-14T19:53:50.457Z,45.50
2023-02-14T19:56:55.959Z,42.47
2023-02-14T20:00:00.168Z,46.33
2023-02-14T20:03:04.113Z,41.27
2023-02-14T20:06:07.374Z,48.37
2023-02-14T20:09:10.493Z,47.70
2023-02-14T20:12:13.601Z,46.60
2023-02-14T20:15:17.572Z,44.80
2023-02-14T20:18:20.234Z,49.20
2023-02-14T20:21:28.065Z,47.93
2023-02-14T20:24:32.546Z,47.70
2023-02-14T20:27:35.348Z,51.93
2023-02-14T20:30:41.174Z,46.10
2023-02-14T20:33:43.843Z,49.50
2023-02-14T20:36:49.441Z,50.10
2023-02-14T20:39:52.029Z,46.57
2023-02-14T20:42:54.624Z,49.07
2023-02-14T20:46:01.025Z,49.07
2023-02-14T20:49:05.993Z,53.30
2023-02-14T20:52:08.612Z,51.53
2023-02-14T20:55:11.365Z,48.70
2023-02-14T20:58:13.995Z,53.37
2023-02-14T21:01:20.090Z,50.23
2023-02-14T21:04:23.383Z,49.23
2023-02-14T21:07:30.592Z,51.07
2023-02-14T21:10:33.234Z,50.50
2023-02-14T21:13:36.370Z,51.03
2023-02-14T21:16:40.288Z,51.20
2023-02-14T21:19:42.876Z,54.20
2023-02-14T21:22:45.489Z,49.40
2023-02-14T21:25:48.054Z,52.07
2023-02-14T21:28:50.631Z,48.83
2023-02-14T21:31:54.739Z,56.20
2023-02-14T21:34:57.435Z,53.97
2023-02-14T21:38:00.036Z,55.60
2023-02-14T21:41:04.971Z,58.47
2023-02-14T21:44:07.661Z,54.10
2023-02-14T21:47:11.579Z,62.50
2023-02-14T21:50:31.326Z,56.60
2023-02-14T21:53:34.351Z,64.13
2023-02-14T21:56:38.818Z,69.23
2023-02-14T21:59:41.690Z,74.33
2023-02-14T22:02:46.023Z,72.43
2023-02-14T22:05:48.669Z,68.87
2023-02-14T22:08:53.760Z,72.87
2023-02-14T22:11:56.367Z,80.67
2023-02-14T22:15:01.157Z,80.03
2023-02-14T22:18:07.149Z,68.23
2023-02-14T22:21:11.587Z,88.03
2023-02-14T22:24:14.443Z,76.03
2023-02-14T22:27:17.153Z,81.70
2023-02-14T22:30:20.172Z,73.60
2023-02-14T22:33:24.335Z,63.33
2023-02-14T22:36:26.976Z,68.03
2023-02-14T22:39:29.597Z,69.17
2023-02-14T22:42:33.030Z,69.43
2023-02-14T22:45:35.605Z,70.07
2023-02-14T22:48:40.288Z,66.73
2023-02-14T22:51:43.718Z,66.57
2023-02-14T22:54:46.311Z,68.30
2023-02-14T22:57:48.900Z,74.33
2023-02-14T23:00:51.505Z,67.77
2023-02-14T23:03:56.895Z,68.33
2023-02-14T23:06:59.555Z,70.00
2023-02-14T23:10:02.245Z,71.63
2023-02-14T23:13:22.232Z,71.03
2023-02-14T23:16:43.037Z,88.83
2023-02-14T23:20:05.089Z,69.80
2023-02-14T23:23:07.669Z,67.17
2023-02-14T23:26:10.248Z,68.17
2023-02-14T23:29:13.049Z,65.33
2023-02-14T23:32:16.470Z,68.37
2023-02-14T23:35:20.480Z,62.37
2023-02-14T23:38:23.076Z,64.70
2023-02-14T23:41:43.072Z,69.03
2023-02-14T23:44:46.765Z,60.13
2023-02-14T23:47:49.785Z,65.00
2023-02-14T23:50:53.726Z,68.80
2023-02-14T23:53:56.436Z,68.20
2023-02-14T23:56:59.114Z,71.43
